Time;durP1;ratioP1;P1;durP2;ratioP2;P2;SDS_P1;SDS_P2;PMS_P1;PMS_P2;Temp;Humidity;BMP_temperature;BMP_pressure;BME280_temperature;BME280_humidity;BME280_pressure;Samples;Min_cycle;Max_cycle;Signal;HPM_P1;HPM_P2
2021/10/16 00:01:42;;;;;;;14.20;3.50;;;;;;;6.06;100.00;100719.06;5060820;28;20107;-73
2021/10/16 00:04:09;;;;;;;12.48;4.22;;;;;;;6.03;100.00;100713.00;5057847;28;20049;-71
2021/10/16 00:06:35;;;;;;;12.80;3.50;;;;;;;6.03;100.00;100727.13;5057578;28;20381;-71
2021/10/16 00:09:03;;;;;;;9.60;3.30;;;;;;;5.94;100.00;100716.81;5057647;28;20041;-71
2021/10/16 00:11:30;;;;;;;17.90;4.00;;;;;;;6.01;100.00;100728.06;5056910;28;20056;-71
2021/10/16 00:13:57;;;;;;;12.80;2.97;;;;;;;5.95;100.00;100723.84;5055943;28;20063;-72
2021/10/16 00:16:24;;;;;;;12.13;3.30;;;;;;;5.93;100.00;100725.66;5035904;28;20045;-72
2021/10/16 00:18:51;;;;;;;20.75;3.60;;;;;;;5.92;100.00;100726.56;5035499;28;20053;-70
2021/10/16 00:21:18;;;;;;;12.48;3.03;;;;;;;5.89;100.00;100734.66;5036847;28;20048;-72
2021/10/16 00:23:46;;;;;;;15.60;3.40;;;;;;;5.86;100.00;100722.34;5036815;28;20342;-71
2021/10/16 00:26:14;;;;;;;12.40;3.22;;;;;;;5.84;100.00;100727.69;5055972;28;20387;-69
2021/10/16 00:28:42;;;;;;;11.23;2.83;;;;;;;5.85;100.00;100732.06;5039001;28;20044;-72
2021/10/16 00:31:09;;;;;;;8.65;2.80;;;;;;;5.85;100.00;100726.78;5055730;28;20058;-71
2021/10/16 00:33:36;;;;;;;10.13;2.75;;;;;;;5.83;100.00;100728.63;5056459;28;20063;-71
2021/10/16 00:36:03;;;;;;;11.88;3.25;;;;;;;5.78;100.00;100725.25;5056599;28;20053;-71
2021/10/16 00:38:30;;;;;;;14.93;3.45;;;;;;;5.76;100.00;100726.19;5055345;28;20137;-70
2021/10/16 00:40:57;;;;;;;12.52;2.95;;;;;;;5.75;100.00;100721.81;5056535;28;20044;-73
2021/10/16 00:43:24;;;;;;;12.00;2.78;;;;;;;5.81;100.00;100727.81;5056359;28;20116;-70
2021/10/16 00:45:50;;;;;;;16.23;2.90;;;;;;;5.71;100.00;100721.06;5054984;28;20045;-70
2021/10/16 00:48:17;;;;;;;14.35;4.53;;;;;;;5.69;100.00;100728.19;5056446;28;20076;-70
2021/10/16 00:50:44;;;;;;;14.13;3.80;;;;;;;5.65;100.00;100724.78;5056032;28;20094;-70
2021/10/16 00:53:12;;;;;;;8.75;2.78;;;;;;;5.67;100.00;100724.75;5055171;28;20052;-70
2021/10/16 00:55:40;;;;;;;12.43;3.00;;;;;;;5.51;100.00;100730.50;5056142;28;20464;-71
2021/10/16 00:58:08;;;;;;;17.45;3.00;;;;;;;5.48;100.00;100727.94;5053845;28;20083;-71
2021/10/16 01:00:35;;;;;;;31.52;4.82;;;;;;;5.49;100.00;100732.31;5018007;28;20042;-71
2021/10/16 01:03:03;;;;;;;11.07;2.70;;;;;;;5.44;100.00;100731.59;5016435;28;20050;-71
2021/10/16 01:05:30;;;;;;;9.40;3.33;;;;;;;5.41;100.00;100729.06;5016283;28;20041;-71
2021/10/16 01:07:57;;;;;;;16.90;3.72;;;;;;;5.42;100.00;100725.50;5015035;28;20049;-71
2021/10/16 01:10:24;;;;;;;8.50;2.72;;;;;;;5.38;100.00;100727.38;5016128;28;20045;-71
2021/10/16 01:12:52;;;;;;;11.40;3.08;;;;;;;5.40;100.00;100724.69;5014548;28;20426;-71
2021/10/16 01:15:20;;;;;;;10.40;3.60;;;;;;;5.36;100.00;100723.03;5010515;28;20060;-70
2021/10/16 01:17:48;;;;;;;14.98;2.80;;;;;;;5.33;100.00;100715.19;5051244;28;20103;-71
2021/10/16 01:20:24;;;;;;;13.38;3.22;;;;;;;5.38;100.00;100715.88;5035731;28;20045;-70
2021/10/16 01:22:53;;;;;;;9.35;2.67;;;;;;;5.36;100.00;100718.59;5035678;28;20044;-69
2021/10/16 01:25:22;;;;;;;9.77;2.83;;;;;;;5.32;100.00;100711.66;5018233;28;20091;-72
2021/10/16 01:27:50;;;;;;;11.73;2.70;;;;;;;5.28;100.00;100710.88;5035516;28;20095;-71
2021/10/16 01:30:20;;;;;;;8.00;2.55;;;;;;;5.22;100.00;100700.47;5035715;28;20398;-71
2021/10/16 01:32:47;;;;;;;10.63;3.33;;;;;;;5.27;100.00;100709.16;5034486;28;20052;-70
2021/10/16 01:35:14;;;;;;;8.30;2.75;;;;;;;5.27;100.00;100698.56;5035494;28;20120;-71
2021/10/16 01:37:44;;;;;;;10.43;3.30;;;;;;;5.25;100.00;100697.75;5035446;28;20041;-71
2021/10/16 01:40:13;;;;;;;19.40;3.30;;;;;;;5.18;100.00;100701.50;5034134;28;20051;-71
2021/10/16 01:42:42;;;;;;;16.15;3.85;;;;;;;5.19;100.00;100703.25;5035145;28;20053;-71
2021/10/16 01:45:15;;;;;;;11.85;2.97;;;;;;;5.15;100.00;100694.53;5035656;28;20053;-71
2021/10/16 01:47:52;;;;;;;12.48;2.88;;;;;;;5.19;100.00;100697.94;5036424;28;20052;-71
2021/10/16 01:50:50;;;;;;;10.98;3.28;;;;;;;5.11;100.00;100692.88;5040032;28;20041;-71
2021/10/16 01:53:26;;;;;;;8.80;3.25;;;;;;;5.08;100.00;100692.97;5034878;28;20055;-71
2021/10/16 01:56:00;;;;;;;16.30;3.75;;;;;;;5.05;100.00;100692.19;5034105;28;20438;-71
2021/10/16 01:58:32;;;;;;;14.13;3.90;;;;;;;5.03;100.00;100695.72;5034132;28;20068;-71
2021/10/16 02:01:12;;;;;;;12.27;3.20;;;;;;;4.99;100.00;100694.09;5034079;28;20056;-71
2021/10/16 02:03:42;;;;;;;12.57;3.77;;;;;;;4.98;100.00;100695.03;5034064;28;20049;-71
2021/10/16 02:06:18;;;;;;;15.27;4.22;;;;;;;4.97;100.00;100701.19;5033930;28;20735;-71
2021/10/16 02:08:49;;;;;;;9.75;3.17;;;;;;;4.96;100.00;100698.63;5033991;28;20057;-71
2021/10/16 02:11:16;;;;;;;12.68;3.88;;;;;;;4.96;100.00;100696.81;5033870;28;20041;-71
2021/10/16 02:14:03;;;;;;;11.57;3.65;;;;;;;4.83;100.00;100698.97;5033916;28;20050;-70
2021/10/16 02:16:31;;;;;;;14.82;4.28;;;;;;;4.85;100.00;100697.13;5033911;28;20402;-70
2021/10/16 02:19:00;;;;;;;11.85;4.57;;;;;;;4.88;100.00;100698.81;5033932;28;20435;-70
2021/10/16 02:21:29;;;;;;;10.77;3.03;;;;;;;4.88;100.00;100696.19;5033692;28;20046;-70
2021/10/16 02:23:58;;;;;;;11.77;3.78;;;;;;;4.88;100.00;100690.91;5035452;28;20136;-70
2021/10/16 02:26:33;;;;;;;9.88;3.40;;;;;;;4.85;100.00;100694.50;5037798;28;20080;-70
2021/10/16 02:28:59;;;;;;;13.93;4.00;;;;;;;4.81;100.00;100694.63;5037696;28;20041;-70
2021/10/16 02:31:30;;;;;;;16.13;4.18;;;;;;;4.84;100.00;100694.53;5022013;28;20037;-70
2021/10/16 02:33:59;;;;;;;22.17;3.85;;;;;;;4.86;100.00;100701.50;5037705;28;20140;-70
2021/10/16 02:36:33;;;;;;;20.00;3.63;;;;;;;4.87;100.00;100699.75;5037504;28;20498;-70
2021/10/16 02:39:00;;;;;;;12.20;3.92;;;;;;;4.81;100.00;100700.78;5037618;28;20458;-70
2021/10/16 02:41:33;;;;;;;12.80;3.50;;;;;;;4.86;100.00;100704.16;5037620;28;20121;-70
2021/10/16 02:44:01;;;;;;;17.23;3.72;;;;;;;4.85;100.00;100705.06;5037763;28;20056;-70
2021/10/16 02:46:32;;;;;;;;;;;;;;;4.89;100.00;100692.63;5022068;28;20072;-70
2021/10/16 02:48:59;;;;;;;13.48;4.93;;;;;;;4.74;100.00;100689.50;5037493;28;19925;-70
2021/10/16 02:51:26;;;;;;;11.18;3.58;;;;;;;4.71;100.00;100696.66;5037383;28;20045;-70
2021/10/16 02:53:53;;;;;;;14.32;3.85;;;;;;;4.67;100.00;100701.16;5037189;28;20049;-70
2021/10/16 02:56:20;;;;;;;14.45;3.90;;;;;;;4.66;100.00;100701.19;5036945;28;20076;-70
2021/10/16 02:58:49;;;;;;;10.30;3.60;;;;;;;4.62;100.00;100697.78;5037232;28;20072;-70
2021/10/16 03:01:16;;;;;;;12.65;3.95;;;;;;;4.72;100.00;100698.38;5038133;28;20045;-70
2021/10/16 03:03:44;;;;;;;16.70;3.53;;;;;;;4.61;100.00;100699.56;5037116;28;20053;-70
2021/10/16 03:06:11;;;;;;;15.27;3.90;;;;;;;4.57;100.00;100697.91;5037095;28;20045;-70
2021/10/16 03:08:39;;;;;;;7.95;3.60;;;;;;;4.49;100.00;100695.47;5037235;28;20053;-70
2021/10/16 03:11:11;;;;;;;13.77;3.40;;;;;;;4.53;100.00;100704.19;5021542;28;20047;-70
2021/10/16 03:13:40;;;;;;;12.23;4.03;;;;;;;4.52;100.00;100707.72;5036962;28;20358;-70
2021/10/16 03:16:10;;;;;;;10.85;3.15;;;;;;;4.51;100.00;100713.09;5036837;28;20054;-69
2021/10/16 03:18:40;;;;;;;10.10;3.17;;;;;;;4.55;100.00;100712.06;5038072;28;20041;-70
2021/10/16 03:21:07;;;;;;;13.63;4.25;;;;;;;4.55;100.00;100715.59;5036834;28;20376;-69
2021/10/16 03:23:35;;;;;;;14.57;3.53;;;;;;;4.43;100.00;100708.00;5053602;28;20068;-71
2021/10/16 03:26:02;;;;;;;11.82;3.38;;;;;;;4.43;100.00;100705.34;5036727;28;20042;-71
2021/10/16 03:28:28;;;;;;;13.35;4.10;;;;;;;4.38;100.00;100712.53;5037799;28;20354;-71
2021/10/16 03:30:55;;;;;;;13.95;3.25;;;;;;;4.35;100.00;100710.81;5036857;28;20045;-71
2021/10/16 03:33:22;;;;;;;10.82;3.45;;;;;;;4.32;100.00;100709.13;5037859;28;20073;-69
2021/10/16 03:35:49;;;;;;;13.95;3.60;;;;;;;4.34;100.00;100717.03;5036446;28;20049;-71
2021/10/16 03:38:16;;;;;;;12.85;3.00;;;;;;;4.31;100.00;100717.97;5036510;28;20053;-70
2021/10/16 03:40:43;;;;;;;13.30;3.10;;;;;;;4.33;100.00;100712.66;5036531;28;20052;-71
2021/10/16 03:43:10;;;;;;;9.98;3.55;;;;;;;4.18;100.00;100701.56;5037413;28;20049;-71
2021/10/16 03:45:37;;;;;;;7.53;2.40;;;;;;;4.24;100.00;100710.25;5036328;28;20056;-71
2021/10/16 03:48:05;;;;;;;10.98;2.80;;;;;;;4.16;100.00;100713.97;5019999;28;20134;-71
2021/10/16 03:50:34;;;;;;;10.40;3.00;;;;;;;4.18;100.00;100712.16;5036269;28;20077;-71
2021/10/16 03:53:02;;;;;;;10.77;2.35;;;;;;;4.24;100.00;100707.63;5019890;28;20053;-72
2021/10/16 03:55:34;;;;;;;11.18;3.20;;;;;;;4.20;100.00;100705.03;5036268;28;20091;-70
2021/10/16 03:58:01;;;;;;;14.00;3.22;;;;;;;4.28;100.00;100712.78;5036057;28;20435;-72
2021/10/16 04:00:29;;;;;;;7.50;2.60;;;;;;;4.18;100.00;100716.53;5019565;28;20045;-71
2021/10/16 04:03:04;;;;;;;9.30;2.65;;;;;;;4.18;100.00;100706.88;5020240;28;20060;-70
2021/10/16 04:05:33;;;;;;;13.07;3.25;;;;;;;4.16;100.00;100719.25;5036095;28;20060;-71
2021/10/16 04:08:01;;;;;;;11.75;2.97;;;;;;;4.15;100.00;100709.56;5035985;28;20049;-71
2021/10/16 04:10:31;;;;;;;9.07;2.78;;;;;;;4.16;100.00;100713.97;5036028;28;20592;-71
2021/10/16 04:12:58;;;;;;;12.35;3.10;;;;;;;4.14;100.00;100717.56;5037005;28;20125;-71
2021/10/16 04:15:25;;;;;;;14.57;2.95;;;;;;;4.12;100.00;100712.28;5035897;28;20107;-71
2021/10/16 04:17:54;;;;;;;12.27;2.90;;;;;;;4.18;100.00;100720.06;5037379;28;20136;-71
2021/10/16 04:20:21;;;;;;;11.50;3.05;;;;;;;4.05;100.00;100700.16;5039869;28;20309;-71
2021/10/16 04:22:51;;;;;;;10.55;3.38;;;;;;;4.14;100.00;100713.13;5038918;28;20045;-71
2021/10/16 04:25:18;;;;;;;9.50;3.25;;;;;;;4.13;100.00;100721.09;5036649;28;20324;-71
2021/10/16 04:27:45;;;;;;;11.50;3.75;;;;;;;4.00;100.00;100712.59;5035559;28;20042;-71
2021/10/16 04:30:30;;;;;;;9.85;2.88;;;;;;;4.00;100.00;100718.75;5026026;28;20091;-70
2021/10/16 04:32:59;;;;;;;11.85;3.17;;;;;;;4.06;100.00;100718.63;5015458;28;20052;-70
2021/10/16 04:35:26;;;;;;;15.13;3.78;;;;;;;4.07;100.00;100716.81;5047903;28;20057;-70
2021/10/16 04:37:53;;;;;;;14.45;3.40;;;;;;;4.00;100.00;100718.75;5036102;28;20107;-70
2021/10/16 04:40:21;;;;;;;10.75;3.20;;;;;;;3.97;100.00;100716.19;5036335;28;20343;-70
2021/10/16 04:42:50;;;;;;;14.90;3.88;;;;;;;4.05;100.00;100710.72;5035048;28;20132;-71
2021/10/16 04:45:18;;;;;;;11.98;3.33;;;;;;;4.02;100.00;100721.34;5035036;28;20450;-71
2021/10/16 04:47:45;;;;;;;11.18;3.33;;;;;;;3.92;100.00;100712.81;5034521;28;20390;-71
2021/10/16 04:50:13;;;;;;;16.95;3.92;;;;;;;3.89;100.00;100713.75;5018916;28;20045;-71
2021/10/16 04:52:44;;;;;;;9.93;3.38;;;;;;;3.93;100.00;100723.31;5035059;28;20107;-71
2021/10/16 04:55:17;;;;;;;20.65;4.10;;;;;;;3.92;100.00;100718.94;5035251;28;20136;-71
2021/10/16 04:57:44;;;;;;;13.15;3.88;;;;;;;3.98;100.00;100723.19;5034488;28;20346;-71
2021/10/16 05:00:12;;;;;;;12.93;3.35;;;;;;;3.91;100.00;100719.84;5034954;28;20065;-71
2021/10/16 05:02:42;;;;;;;13.70;3.95;;;;;;;3.92;100.00;100721.59;5014381;28;20042;-71
2021/10/16 05:05:09;;;;;;;14.52;4.95;;;;;;;3.88;100.00;100716.41;5034479;28;20055;-71
2021/10/16 05:07:38;;;;;;;8.93;3.38;;;;;;;3.89;100.00;100719.03;5034308;28;20430;-70
2021/10/16 05:10:05;;;;;;;9.73;3.63;;;;;;;3.83;100.00;100719.19;5030146;28;20096;-69
2021/10/16 05:12:33;;;;;;;14.70;3.75;;;;;;;3.82;100.00;100727.13;5034532;28;20116;-71
2021/10/16 05:15:03;;;;;;;17.17;4.47;;;;;;;3.84;100.00;100718.25;5018208;28;20080;-72
2021/10/16 05:17:33;;;;;;;12.73;3.80;;;;;;;3.85;100.00;100722.63;5041411;28;20049;-73
2021/10/16 05:20:01;;;;;;;13.68;3.90;;;;;;;3.86;100.00;100720.88;5025234;28;20477;-71
2021/10/16 05:22:33;;;;;;;18.50;4.18;;;;;;;3.82;100.00;100720.09;5015309;28;20052;-71
2021/10/16 05:25:00;;;;;;;14.40;4.03;;;;;;;3.81;100.00;100713.03;5040611;28;20131;-71
2021/10/16 05:27:27;;;;;;;11.75;3.28;;;;;;;3.82;100.00;100719.19;5050538;28;20335;-73
2021/10/16 05:29:54;;;;;;;10.80;3.40;;;;;;;3.74;100.00;100714.97;5052281;28;20617;-77
2021/10/16 05:32:21;;;;;;;13.23;3.60;;;;;;;3.79;100.00;100725.41;5028369;28;20071;-75
2021/10/16 05:34:48;;;;;;;13.35;4.43;;;;;;;3.75;100.00;100729.91;5052422;28;20120;-74
2021/10/16 05:37:15;;;;;;;17.48;4.57;;;;;;;3.70;100.00;100721.22;5054177;28;20045;-74
2021/10/16 05:39:42;;;;;;;11.23;4.03;;;;;;;3.71;100.00;100728.22;5052692;28;20045;-72
2021/10/16 05:42:09;;;;;;;11.63;4.88;;;;;;;3.75;100.00;100723.75;5051274;28;20080;-74
2021/10/16 05:44:36;;;;;;;18.00;4.57;;;;;;;3.73;100.00;100725.56;5047171;28;20044;-73
2021/10/16 05:47:04;;;;;;;13.35;4.85;;;;;;;3.80;100.00;100722.75;5043100;28;20037;-74
2021/10/16 05:49:31;;;;;;;18.98;5.43;;;;;;;3.70;100.00;100715.94;5048334;28;20055;-72
2021/10/16 05:51:59;;;;;;;20.15;4.47;;;;;;;3.71;100.00;100719.47;5038677;28;20067;-74
2021/10/16 05:54:27;;;;;;;12.65;4.28;;;;;;;3.68;100.00;100723.03;5040863;28;20107;-70
2021/10/16 05:56:54;;;;;;;17.55;4.50;;;;;;;3.75;100.00;100726.38;5036498;28;20434;-73
2021/10/16 05:59:21;;;;;;;15.57;5.03;;;;;;;3.70;100.00;100717.72;5049722;28;20044;-71
2021/10/16 06:01:48;;;;;;;20.08;5.70;;;;;;;3.71;100.00;100714.19;5053145;28;20040;-71
2021/10/16 06:04:15;;;;;;;17.80;4.63;;;;;;;3.72;100.00;100721.19;5004017;28;20053;-71
2021/10/16 06:06:42;;;;;;;18.10;4.90;;;;;;;3.71;100.00;100722.94;5031694;28;20103;-73
2021/10/16 06:09:09;;;;;;;17.17;5.15;;;;;;;3.80;100.00;100724.50;5039713;28;20048;-74
2021/10/16 06:11:36;;;;;;;13.30;4.85;;;;;;;3.72;100.00;100721.19;5050769;28;20079;-74
2021/10/16 06:14:03;;;;;;;17.17;5.53;;;;;;;3.72;100.00;100722.06;5048006;28;20322;-73
2021/10/16 06:16:30;;;;;;;16.70;5.57;;;;;;;3.74;100.00;100724.66;5040805;28;20091;-74
2021/10/16 06:18:57;;;;;;;13.35;5.20;;;;;;;3.76;100.00;100726.34;5049180;28;20098;-76
2021/10/16 06:21:23;;;;;;;14.68;5.32;;;;;;;3.80;100.00;100728.03;5041549;28;20364;-75
2021/10/16 06:23:50;;;;;;;12.00;5.35;;;;;;;3.80;100.00;100728.03;5049053;28;20045;-76
2021/10/16 06:26:37;;;;;;;15.98;5.82;;;;;;;3.79;100.00;100731.59;5041741;28;20132;-75
2021/10/16 06:29:05;;;;;;;17.70;5.05;;;;;;;3.86;100.00;100734.94;5033505;28;20080;-74
2021/10/16 06:31:31;;;;;;;15.40;5.82;;;;;;;3.82;100.00;100733.28;5032593;28;20041;-74
2021/10/16 06:33:59;;;;;;;17.67;5.68;;;;;;;3.87;100.00;100734.03;5041427;28;20442;-74
2021/10/16 06:36:26;;;;;;;16.00;5.57;;;;;;;3.85;100.00;100737.59;5033050;28;20133;-75
2021/10/16 06:38:53;;;;;;;19.25;6.03;;;;;;;3.87;100.00;100734.03;5024242;28;20049;-74
2021/10/16 06:41:21;;;;;;;12.43;6.75;;;;;;;3.97;100.00;100736.47;5017062;28;20042;-75
2021/10/16 06:44:07;;;;;;;17.00;6.55;;;;;;;3.97;100.00;100739.09;5024983;28;20186;-71
2021/10/16 06:47:00;;;;;;;23.05;7.40;;;;;;;3.96;100.00;100747.94;5024745;28;20046;-74
2021/10/16 06:49:30;;;;;;;21.85;7.22;;;;;;;3.94;100.00;100750.59;5040335;28;20045;-75
2021/10/16 06:51:58;;;;;;;16.67;6.13;;;;;;;3.92;100.00;100734.78;5037331;28;20075;-71
2021/10/16 06:54:24;;;;;;;12.55;6.40;;;;;;;4.07;100.00;100745.88;5015072;28;20050;-71
2021/10/16 06:56:51;;;;;;;20.30;7.28;;;;;;;4.07;100.00;100746.75;5032184;28;20059;-69
2021/10/16 06:59:19;;;;;;;13.57;6.20;;;;;;;4.15;100.00;100743.91;5036921;28;20049;-69
2021/10/16 07:01:47;;;;;;;16.45;6.50;;;;;;;4.19;100.00;100740.28;5032323;28;20045;-72
2021/10/16 07:04:22;;;;;;;15.65;6.22;;;;;;;4.31;100.00;100743.53;5028030;28;20053;-73
2021/10/16 07:06:54;;;;;;;18.65;6.90;;;;;;;4.29;100.00;100732.13;5033661;28;20187;-71
2021/10/16 07:09:28;;;;;;;14.68;6.75;;;;;;;4.37;100.00;100753.97;5041884;28;20049;-70
2021/10/16 07:11:55;;;;;;;15.68;6.90;;;;;;;4.39;100.00;100746.84;5057836;28;20052;-72
2021/10/16 07:14:22;;;;;;;21.38;7.82;;;;;;;4.39;100.00;100743.31;5053531;28;20045;-74
2021/10/16 07:16:49;;;;;;;17.75;6.82;;;;;;;4.43;100.00;100743.22;5035994;28;20406;-70
2021/10/16 07:19:16;;;;;;;17.02;7.07;;;;;;;4.43;100.00;100732.66;5035657;28;20053;-80
2021/10/16 07:21:43;;;;;;;19.10;7.90;;;;;;;4.58;100.00;100746.38;5038227;28;20057;-84
2021/10/16 07:24:10;;;;;;;16.05;7.38;;;;;;;4.66;100.00;100757.59;5039572;28;20512;-79
2021/10/16 07:26:39;;;;;;;20.13;7.20;;;;;;;4.69;100.00;100760.16;5040800;28;20496;-74
2021/10/16 07:29:07;;;;;;;19.08;6.63;;;;;;;4.80;100.00;100766.94;5029057;28;20057;-77
2021/10/16 07:31:34;;;;;;;19.23;6.43;;;;;;;4.80;100.00;100766.94;5031163;28;20041;-75
2021/10/16 07:34:01;;;;;;;17.70;6.88;;;;;;;4.88;100.00;100770.25;5029665;28;20080;-76
2021/10/16 07:36:34;;;;;;;21.30;7.47;;;;;;;4.98;100.00;100763.81;5022492;28;20050;-71
2021/10/16 07:39:05;;;;;;;14.73;7.22;;;;;;;5.07;100.00;100767.09;5045853;28;20064;-72
2021/10/16 07:41:33;;;;;;;22.40;8.38;;;;;;;5.13;100.00;100765.13;5047147;28;20152;-71
2021/10/16 07:44:01;;;;;;;16.33;7.43;;;;;;;5.20;100.00;100771.13;5048431;28;20076;-72
2021/10/16 07:46:28;;;;;;;18.35;7.20;;;;;;;5.23;100.00;100767.53;5037693;28;20144;-70
2021/10/16 07:48:55;;;;;;;19.50;8.13;;;;;;;5.35;100.00;100779.53;5025812;28;20093;-70
2021/10/16 07:51:22;;;;;;;19.40;8.40;;;;;;;5.42;100.00;100779.31;5021706;28;20445;-70
2021/10/16 07:53:48;;;;;;;23.33;8.32;;;;;;;5.50;100.00;100779.06;5025686;28;20065;-70
2021/10/16 07:56:15;;;;;;;21.92;9.00;;;;;;;5.47;100.00;100757.09;5038351;28;20434;-69
2021/10/16 07:58:43;;;;;;;18.58;7.40;;;;;;;5.67;100.00;100775.06;5048298;28;20045;-69
2021/10/16 08:01:09;;;;;;;25.05;8.20;;;;;;;5.70;100.00;100767.00;5039234;28;20045;-70
2021/10/16 08:03:37;;;;;;;21.58;8.73;;;;;;;5.77;100.00;100765.06;5044061;28;20049;-69
2021/10/16 08:06:04;;;;;;;18.05;8.00;;;;;;;5.89;100.00;100763.78;5038475;28;20339;-69
2021/10/16 08:08:32;;;;;;;21.65;8.88;;;;;;;5.99;100.00;100767.84;5040672;28;20123;-70
2021/10/16 08:10:59;;;;;;;20.52;7.80;;;;;;;6.05;100.00;100767.69;5021031;28;20073;-72
2021/10/16 08:13:29;;;;;;;21.38;9.23;;;;;;;6.16;100.00;100771.78;5027760;28;20084;-71
2021/10/16 08:15:57;;;;;;;20.10;8.43;;;;;;;6.24;100.00;100775.06;5043608;28;20489;-73
2021/10/16 08:18:24;;;;;;;25.20;8.70;;;;;;;6.34;100.00;100770.31;5036271;28;20046;-77
2021/10/16 08:20:51;;;;;;;20.77;8.88;;;;;;;6.43;100.00;100780.59;5040251;28;20051;-70
2021/10/16 08:23:18;;;;;;;20.55;8.20;;;;;;;6.52;100.00;100763.50;5037048;28;20050;-72
2021/10/16 08:25:46;;;;;;;21.30;8.32;;;;;;;6.61;100.00;100767.63;5040191;28;20045;-72
2021/10/16 08:28:14;;;;;;;32.72;8.00;;;;;;;6.69;100.00;100775.34;5035903;28;20490;-74
2021/10/16 08:30:50;;;;;;;24.85;8.60;;;;;;;6.78;100.00;100769.69;5027115;28;20048;-72
2021/10/16 08:33:18;;;;;;;26.23;7.97;;;;;;;6.88;100.00;100771.13;5041502;28;20037;-72
2021/10/16 08:35:45;;;;;;;14.90;7.47;;;;;;;6.98;100.00;100770.78;5028104;28;20045;-73
2021/10/16 08:38:12;;;;;;;17.80;7.03;;;;;;;7.06;100.00;100768.72;5032916;28;20052;-76
2021/10/16 08:40:39;;;;;;;23.63;7.97;;;;;;;7.21;100.00;100772.59;5039590;28;20370;-71
2021/10/16 08:43:06;;;;;;;29.05;9.30;;;;;;;7.29;100.00;100769.63;5035644;28;20033;-74
2021/10/16 08:45:35;;;;;;;29.50;11.30;;;;;;;7.35;100.00;100764.09;5034326;28;20095;-70
2021/10/16 08:48:06;;;;;;;25.95;12.13;;;;;;;7.50;100.00;100762.66;5029832;28;20069;-73
2021/10/16 08:50:35;;;;;;;24.02;11.38;;;;;;;7.56;100.00;100761.53;5035228;28;20068;-75
2021/10/16 08:53:02;;;;;;;35.45;14.80;;;;;;;7.70;100.00;100767.22;5035104;28;20446;-73
2021/10/16 08:55:29;;;;;;;28.73;17.08;;;;;;;7.72;100.00;100752.06;5041698;28;20378;-74
2021/10/16 08:57:56;;;;;;;48.78;19.45;;;;;;;7.96;100.00;100765.28;5036448;28;20041;-74
2021/10/16 09:00:41;;;;;;;45.33;24.77;;;;;;;8.10;100.00;100763.84;5050149;28;20041;-72
2021/10/16 09:03:50;;;;;;;49.65;21.85;;;;;;;8.21;100.00;100764.28;5037894;28;20041;-70
2021/10/16 09:06:20;;;;;;;45.17;23.27;;;;;;;8.45;97.66;100765.97;5035551;28;20044;-73
2021/10/16 09:09:00;;;;;;;51.78;23.60;;;;;;;8.62;96.80;100759.97;5032389;28;20431;-74
2021/10/16 09:11:44;;;;;;;39.92;17.92;;;;;;;8.78;94.54;100762.84;5033942;28;20087;-74
2021/10/16 09:14:13;;;;;;;43.33;18.95;;;;;;;8.95;91.80;100767.41;5045216;28;20484;-75
2021/10/16 09:16:53;;;;;;;34.00;17.75;;;;;;;8.92;93.93;100755.09;5042390;28;20541;-77
2021/10/16 09:19:23;;;;;;;31.65;12.00;;;;;;;9.23;90.22;100763.50;5035850;28;20491;-78
2021/10/16 09:22:03;;;;;;;30.10;11.23;;;;;;;9.36;88.93;100764.66;5032486;28;20033;-77
2021/10/16 09:24:34;;;;;;;23.73;9.25;;;;;;;9.43;87.36;100764.38;5040209;28;20033;-74
2021/10/16 09:27:13;;;;;;;25.58;10.38;;;;;;;9.44;87.14;100752.78;5037320;28;20453;-72
2021/10/16 09:29:42;;;;;;;20.50;10.65;;;;;;;9.49;89.28;100753.44;5032003;28;20042;-72
2021/10/16 09:32:12;;;;;;;23.83;9.40;;;;;;;9.51;89.40;100760.44;5034035;28;20033;-75
2021/10/16 09:34:43;;;;;;;22.70;7.45;;;;;;;9.55;90.69;100758.47;5033757;28;20076;-72
2021/10/16 09:37:17;;;;;;;25.67;8.35;;;;;;;9.62;89.39;100759.91;5038757;28;20041;-73
2021/10/16 09:39:47;;;;;;;16.35;6.50;;;;;;;9.69;90.26;100762.28;5031180;28;20046;-70
2021/10/16 09:42:17;;;;;;;26.92;6.57;;;;;;;9.87;84.11;100750.72;5036893;28;20037;-73
2021/10/16 09:44:44;;;;;;;22.60;6.15;;;;;;;9.95;83.08;100749.47;5036301;28;20048;-74
2021/10/16 09:47:17;;;;;;;28.60;6.68;;;;;;;9.99;85.01;100746.63;5035419;28;20043;-72
2021/10/16 09:50:02;;;;;;;19.45;5.80;;;;;;;10.15;84.12;100757.34;5032738;28;20041;-73
2021/10/16 09:52:50;;;;;;;22.52;5.53;;;;;;;10.36;80.59;100764.38;5039862;28;20034;-73
2021/10/16 09:55:17;;;;;;;17.70;5.07;;;;;;;10.45;80.75;100759.47;5033572;28;20049;-72
2021/10/16 09:57:46;;;;;;;18.52;4.75;;;;;;;10.46;77.33;100741.63;5037072;28;20033;-71
2021/10/16 10:00:14;;;;;;;15.35;4.03;;;;;;;10.72;77.28;100768.78;5031926;28;20041;-71
2021/10/16 10:02:49;;;;;;;26.42;5.10;;;;;;;10.71;77.85;100775.09;5036574;28;20037;-72
2021/10/16 10:05:21;;;;;;;20.23;5.53;;;;;;;10.75;78.36;100765.09;5030313;28;20073;-72
2021/10/16 10:07:48;;;;;;;28.85;5.85;;;;;;;10.79;79.69;100772.03;5035738;28;20045;-70
2021/10/16 10:10:15;;;;;;;19.67;4.85;;;;;;;10.97;79.47;100783.53;5037357;28;20224;-70
2021/10/16 10:12:43;;;;;;;20.30;5.40;;;;;;;11.17;75.61;100774.47;5035863;28;20050;-73
2021/10/16 10:15:11;;;;;;;30.35;6.63;;;;;;;11.16;76.93;100778.06;5033653;28;20041;-76
2021/10/16 10:17:38;;;;;;;21.48;4.70;;;;;;;11.24;75.77;100778.53;5037225;28;20418;-73
2021/10/16 10:20:07;;;;;;;18.27;4.93;;;;;;;11.38;74.92;100775.13;5039542;28;20050;-74
2021/10/16 10:22:35;;;;;;;21.15;4.57;;;;;;;11.39;74.42;100776.00;5034550;28;20064;-73
2021/10/16 10:25:23;;;;;;;17.25;4.03;;;;;;;11.48;75.96;100770.13;5034806;28;20042;-72
2021/10/16 10:27:53;;;;;;;20.63;3.95;;;;;;;11.55;72.25;100774.19;5032073;28;20116;-75
2021/10/16 10:30:34;;;;;;;13.55;3.22;;;;;;;11.57;71.31;100766.09;5037361;28;20439;-74
2021/10/16 10:33:16;;;;;;;18.33;3.50;;;;;;;11.63;70.29;100768.41;5040046;28;20052;-69
2021/10/16 10:36:03;;;;;;;19.52;3.92;;;;;;;11.77;70.91;100764.97;5030241;28;20037;-72
2021/10/16 10:38:32;;;;;;;17.38;4.10;;;;;;;11.85;66.73;100769.88;5044256;28;20041;-70
2021/10/16 10:41:24;;;;;;;11.43;1.98;;;;;;;11.93;61.16;100774.81;5031065;28;20053;-70
2021/10/16 10:43:54;;;;;;;10.77;2.55;;;;;;;12.00;65.43;100762.81;5031939;28;20045;-72
2021/10/16 10:46:24;;;;;;;19.10;3.15;;;;;;;12.12;63.94;100763.94;5035063;28;20083;-72
2021/10/16 10:48:52;;;;;;;16.83;2.60;;;;;;;12.17;64.59;100761.88;5050457;28;20071;-71
2021/10/16 10:51:40;;;;;;;18.70;3.45;;;;;;;12.25;63.98;100763.22;5042721;28;20053;-69
2021/10/16 10:54:18;;;;;;;16.33;3.78;;;;;;;12.39;65.64;100765.06;5030766;28;20327;-75
2021/10/16 10:56:53;;;;;;;16.50;3.88;;;;;;;12.44;67.05;100758.53;5046389;28;20427;-74
2021/10/16 10:59:20;;;;;;;14.10;3.65;;;;;;;12.51;66.00;100759.00;5048831;28;20045;-71
2021/10/16 11:01:50;;;;;;;15.65;3.40;;;;;;;12.61;65.71;100757.50;5052261;28;20037;-74
2021/10/16 11:04:35;;;;;;;21.50;4.40;;;;;;;12.69;65.39;100749.00;5045870;28;20044;-73
2021/10/16 11:07:05;;;;;;;14.80;3.97;;;;;;;12.76;66.17;100747.66;5033004;28;20045;-71
2021/10/16 11:09:33;;;;;;;20.38;3.40;;;;;;;12.90;65.69;100743.28;5049693;28;20036;-72
2021/10/16 11:12:00;;;;;;;17.60;4.07;;;;;;;12.76;62.93;100741.47;5034452;28;20100;-72
2021/10/16 11:14:33;;;;;;;15.77;4.07;;;;;;;12.93;63.56;100743.09;5037363;28;20042;-69
2021/10/16 11:17:06;;;;;;;20.77;3.58;;;;;;;12.98;61.92;100734.78;5050205;28;20323;-71
2021/10/16 11:19:50;;;;;;;12.68;3.47;;;;;;;13.17;63.10;100734.47;5034830;28;20351;-70
2021/10/16 11:22:17;;;;;;;11.45;3.55;;;;;;;13.24;61.92;100734.97;5038242;28;20053;-71
2021/10/16 11:24:44;;;;;;;13.32;3.47;;;;;;;13.33;63.07;100741.56;5036028;28;20111;-71
2021/10/16 11:27:11;;;;;;;16.55;3.28;;;;;;;13.41;62.57;100725.84;5039319;28;20052;-73
2021/10/16 11:29:40;;;;;;;14.73;2.72;;;;;;;13.40;60.07;100730.34;5036047;28;20045;-71
2021/10/16 11:32:18;;;;;;;16.85;3.65;;;;;;;13.41;61.12;100726.69;5050334;28;20041;-73